Dorothy Ann — WDE8761 — position and weather

sailwx.info

Track history (hours):
 
Tides and Currents Weather Stations Pressure Air Temp Water Temp Dewpoint Dewpoint Depression Visibility Wind Speed Wind Dir Waves Ship Positions

Dorothy Ann

More information available from US FCC via Universal Licensing System and Coast Guard Vessel Documentation Center.

Last reported at 2014-Aug-26 10:33 UTC. Time now 2014-Sep-19 13:53 UTC.
Position N 45°36' W 083°53'.
Warning: this ship's position is 24 days out of date.

Length 215 m; draft 5.1 m.

Type: Cargo ship. MMSI: 367409260.

Date/timePositionNaut miles runAvg speedWind from/ knotsBaromVisibWave heightAir tempDewpointWater temp
2014-Aug-26 10:33N 45°36' W 083°53'8 8.2
2014-Aug-26 09:33N 45°39' W 084°03'12 8.0
2014-Aug-26 08:03N 45°41' W 084°20'4 8.6
2014-Aug-26 07:33N 45°42' W 084°27'8 8.5
2014-Aug-26 06:33N 45°46' W 084°37'9 8.5
2014-Aug-26 05:33N 45°49' W 084°48'9 8.7
2014-Aug-26 04:33N 45°51' W 085°01'9 8.6
2014-Aug-26 03:33N 45°52' W 085°13'8 8.4
2014-Aug-26 02:33N 45°53' W 085°25'9 8.7
2014-Aug-26 01:33N 45°53' W 085°37'8 8.4
2014-Aug-26 00:33N 45°50' W 085°48'9 8.8
2014-Aug-25 23:33N 45°46' W 085°59'41 8.2
2014-Aug-25 18:33N 45°27' W 086°51'17 7.5
2014-Aug-25 16:13N 45°43' W 087°02'  
2014-Aug-23 03:34N 45°49' W 084°48'8 8.3
2014-Aug-23 02:33N 45°46' W 084°37'9 8.6
2014-Aug-23 01:34N 45°42' W 084°26'8 8.3
2014-Aug-23 00:33N 45°40' W 084°14'12 8.7
2014-Aug-22 23:07N 45°35' W 083°58'  
Track history (hours):
 
Tides and Currents Weather Stations Pressure Air Temp Water Temp Dewpoint Dewpoint Depression Visibility Wind Speed Wind Dir Waves Ship Positions

Dorothy Ann

More information available from US FCC via Universal Licensing System and Coast Guard Vessel Documentation Center.

Last reported at 2014-Aug-26 10:33 UTC. Time now 2014-Sep-19 13:53 UTC.
Position N 45°36' W 083°53'.
Warning: this ship's position is 24 days out of date.

Length 215 m; draft 5.1 m.

Type: Cargo ship. MMSI: 367409260.

Date/timePositionNaut miles runAvg speedWind from/ knotsBaromVisibWave heightAir tempDewpointWater temp
2014-Aug-26 10:33N 45°36' W 083°53'8 8.2
2014-Aug-26 09:33N 45°39' W 084°03'12 8.0
2014-Aug-26 08:03N 45°41' W 084°20'4 8.6
2014-Aug-26 07:33N 45°42' W 084°27'8 8.5
2014-Aug-26 06:33N 45°46' W 084°37'9 8.5
2014-Aug-26 05:33N 45°49' W 084°48'9 8.7
2014-Aug-26 04:33N 45°51' W 085°01'9 8.6
2014-Aug-26 03:33N 45°52' W 085°13'8 8.4
2014-Aug-26 02:33N 45°53' W 085°25'9 8.7
2014-Aug-26 01:33N 45°53' W 085°37'8 8.4
2014-Aug-26 00:33N 45°50' W 085°48'9 8.8
2014-Aug-25 23:33N 45°46' W 085°59'41 8.2
2014-Aug-25 18:33N 45°27' W 086°51'17 7.5
2014-Aug-25 16:13N 45°43' W 087°02'  
2014-Aug-23 03:34N 45°49' W 084°48'8 8.3
2014-Aug-23 02:33N 45°46' W 084°37'9 8.6
2014-Aug-23 01:34N 45°42' W 084°26'8 8.3
2014-Aug-23 00:33N 45°40' W 084°14'12 8.7
2014-Aug-22 23:07N 45°35' W 083°58'  

Dump ship's entire track history